Time;durP1;ratioP1;P1;durP2;ratioP2;P2;SDS_P1;SDS_P2;PMS_P1;PMS_P2;Temp;Humidity;BMP_temperature;BMP_pressure;BME280_temperature;BME280_humidity;BME280_pressure;Samples;Min_cycle;Max_cycle;Signal;HPM_P1;HPM_P2
2021/04/24 00:02:00;;;;;;;16.25;8.93;;;13.60;69.60;;;;;;5067018;28;20423;-76
2021/04/24 00:04:27;;;;;;;19.15;9.20;;;13.50;69.60;;;;;;5064104;28;20961;-76
2021/04/24 00:06:55;;;;;;;16.60;8.95;;;13.50;69.80;;;;;;5068192;28;20448;-75
2021/04/24 00:09:21;;;;;;;20.85;9.32;;;13.50;70.20;;;;;;5072290;28;20427;-75
2021/04/24 00:11:48;;;;;;;16.20;8.93;;;13.50;70.40;;;;;;5068799;28;20438;-75
2021/04/24 00:14:14;;;;;;;17.40;9.30;;;13.50;70.50;;;;;;5066404;28;20439;-75
2021/04/24 00:16:41;;;;;;;21.27;9.30;;;13.50;70.70;;;;;;5069584;28;20423;-75
2021/04/24 00:19:07;;;;;;;20.35;9.40;;;13.50;70.90;;;;;;5071055;28;20426;-76
2021/04/24 00:21:33;;;;;;;19.25;9.50;;;13.50;71.10;;;;;;5067420;28;20857;-76
2021/04/24 00:24:01;;;;;;;19.60;10.02;;;13.40;71.20;;;;;;5067259;28;20434;-75
2021/04/24 00:26:27;;;;;;;18.23;9.63;;;13.40;71.40;;;;;;5065552;28;20443;-76
2021/04/24 00:28:54;;;;;;;20.80;10.00;;;13.40;71.50;;;;;;5067060;28;20980;-75
2021/04/24 00:31:20;;;;;;;19.50;9.80;;;13.40;71.60;;;;;;5077426;28;20775;-75
2021/04/24 00:33:47;;;;;;;20.65;10.18;;;13.40;71.80;;;;;;5068486;28;20423;-76
2021/04/24 00:36:13;;;;;;;18.33;9.68;;;13.40;71.90;;;;;;5067764;28;20488;-76
2021/04/24 00:38:40;;;;;;;19.58;9.30;;;13.30;72.00;;;;;;5067884;28;20420;-75
2021/04/24 00:41:07;;;;;;;17.33;9.45;;;13.30;72.20;;;;;;5077344;28;20422;-77
2021/04/24 00:43:33;;;;;;;17.73;10.18;;;13.30;72.20;;;;;;5067575;28;20423;-75
2021/04/24 00:46:09;;;;;;;17.08;9.77;;;13.20;72.40;;;;;;5074815;28;20429;-76
2021/04/24 00:48:35;;;;;;;20.43;10.50;;;13.20;72.60;;;;;;5065240;28;20923;-76
2021/04/24 00:51:02;;;;;;;18.75;9.77;;;13.20;72.80;;;;;;5069321;28;20423;-77
2021/04/24 00:53:29;;;;;;;20.80;10.33;;;13.20;73.80;;;;;;5063534;28;20419;-76
2021/04/24 00:55:55;;;;;;;17.52;10.15;;;13.20;73.10;;;;;;5080189;28;20422;-75
2021/04/24 00:58:22;;;;;;;19.67;10.85;;;13.10;73.10;;;;;;5070964;28;20435;-76
2021/04/24 01:00:49;;;;;;;20.45;10.52;;;13.10;73.30;;;;;;5071698;28;20887;-76
2021/04/24 01:03:15;;;;;;;19.02;10.68;;;13.10;73.40;;;;;;5076677;28;20427;-76
2021/04/24 01:05:43;;;;;;;17.80;10.65;;;13.10;73.50;;;;;;5073092;28;20757;-76
2021/04/24 01:08:10;;;;;;;18.55;10.50;;;13.10;73.60;;;;;;5067219;28;21214;-76
2021/04/24 01:10:39;;;;;;;17.02;10.65;;;13.00;73.60;;;;;;5068080;28;20427;-77
2021/04/24 01:13:06;;;;;;;20.50;11.20;;;13.00;73.80;;;;;;5073700;28;20428;-76
2021/04/24 01:15:34;;;;;;;21.15;11.10;;;13.00;74.00;;;;;;5068653;28;20439;-77
2021/04/24 01:18:01;;;;;;;19.27;10.85;;;13.00;73.90;;;;;;5067746;28;20427;-75
2021/04/24 01:20:31;;;;;;;21.75;11.13;;;13.00;74.10;;;;;;5067694;28;20893;-76
2021/04/24 01:22:58;;;;;;;21.05;11.55;;;12.90;74.30;;;;;;5069228;28;20426;-76
2021/04/24 01:25:27;;;;;;;24.70;11.80;;;12.90;74.40;;;;;;5072555;28;20423;-76
2021/04/24 01:27:55;;;;;;;22.00;11.33;;;12.90;74.60;;;;;;5068260;28;20423;-77
2021/04/24 01:30:25;;;;;;;19.40;10.85;;;12.90;74.70;;;;;;5064038;28;20444;-77
2021/04/24 01:32:52;;;;;;;21.75;11.23;;;12.90;74.90;;;;;;5066295;28;20439;-76
2021/04/24 01:35:22;;;;;;;18.48;11.10;;;12.90;74.90;;;;;;5070417;28;20431;-75
2021/04/24 01:37:49;;;;;;;21.73;11.20;;;12.90;74.90;;;;;;5068412;28;20792;-76
2021/04/24 01:40:17;;;;;;;20.13;10.98;;;12.80;75.10;;;;;;5065771;28;20431;-75
2021/04/24 01:42:45;;;;;;;20.57;11.20;;;12.80;75.10;;;;;;5069966;28;20420;-77
2021/04/24 01:45:16;;;;;;;20.45;11.20;;;12.80;75.10;;;;;;5072133;28;20476;-75
2021/04/24 01:47:45;;;;;;;19.92;11.50;;;12.80;75.00;;;;;;5074125;28;20423;-75
2021/04/24 01:50:14;;;;;;;18.10;10.88;;;12.80;75.10;;;;;;5074352;28;20463;-75
2021/04/24 01:52:42;;;;;;;20.95;11.05;;;12.70;75.50;;;;;;5068582;28;20417;-76
2021/04/24 01:55:13;;;;;;;19.67;10.38;;;12.70;75.70;;;;;;5064583;28;20432;-76
2021/04/24 01:57:41;;;;;;;22.10;11.50;;;12.60;75.90;;;;;;5065314;28;20439;-77
2021/04/24 02:00:10;;;;;;;22.40;11.23;;;12.60;76.10;;;;;;5071916;28;20415;-77
2021/04/24 02:02:36;;;;;;;20.88;10.85;;;12.60;76.40;;;;;;5076335;28;20528;-76
2021/04/24 02:05:07;;;;;;;19.20;10.88;;;12.60;76.60;;;;;;5068457;28;20422;-75
2021/04/24 02:07:33;;;;;;;18.83;10.48;;;12.50;76.80;;;;;;5082873;28;20889;-76
2021/04/24 02:09:59;;;;;;;21.25;10.82;;;12.50;77.00;;;;;;5075963;28;20970;-76
2021/04/24 02:12:26;;;;;;;23.48;11.05;;;12.40;77.00;;;;;;5081029;28;20433;-76
2021/04/24 02:14:54;;;;;;;19.58;11.02;;;12.40;78.10;;;;;;5072567;28;20417;-77
2021/04/24 02:17:23;;;;;;;21.92;11.00;;;12.40;77.40;;;;;;5080430;28;20507;-75
2021/04/24 02:19:52;;;;;;;20.40;10.90;;;12.40;77.60;;;;;;5069576;28;20431;-77
2021/04/24 02:22:21;;;;;;;19.20;11.13;;;12.40;77.80;;;;;;5074778;28;20477;-76
2021/04/24 02:24:49;;;;;;;20.30;10.90;;;12.30;77.80;;;;;;5069522;28;20435;-76
2021/04/24 02:27:15;;;;;;;20.02;10.98;;;12.30;78.00;;;;;;5078649;28;20428;-75
2021/04/24 02:29:43;;;;;;;20.83;11.48;;;12.30;78.20;;;;;;5073687;28;20931;-76
2021/04/24 02:32:12;;;;;;;18.85;10.73;;;12.30;78.30;;;;;;5068253;28;20431;-76
2021/04/24 02:34:39;;;;;;;19.63;10.73;;;12.20;78.50;;;;;;5073859;28;20430;-77
2021/04/24 02:37:06;;;;;;;18.98;11.15;;;12.20;78.60;;;;;;5075977;28;20494;-76
2021/04/24 02:39:34;;;;;;;19.45;10.88;;;12.20;78.80;;;;;;5070223;28;20443;-75
2021/04/24 02:42:02;;;;;;;20.80;11.40;;;12.10;78.70;;;;;;5069790;28;20421;-75
2021/04/24 02:44:29;;;;;;;22.35;11.30;;;12.20;78.90;;;;;;5072539;28;22124;-75
2021/04/24 02:46:55;;;;;;;20.00;10.95;;;12.10;78.90;;;;;;5072369;28;20429;-75
2021/04/24 02:49:22;;;;;;;21.52;11.70;;;12.10;78.90;;;;;;5073554;28;20431;-75
2021/04/24 02:51:49;;;;;;;20.53;11.80;;;12.10;79.10;;;;;;5076126;28;20443;-74
2021/04/24 02:54:15;;;;;;;21.55;11.38;;;12.10;79.30;;;;;;5076489;28;20787;-72
2021/04/24 02:56:42;;;;;;;21.27;11.70;;;12.10;79.40;;;;;;5075975;28;20423;-74
2021/04/24 02:59:08;;;;;;;22.08;11.48;;;12.00;79.60;;;;;;5068619;28;20419;-75
2021/04/24 03:01:34;;;;;;;21.15;12.15;;;12.10;79.60;;;;;;5071963;28;20498;-75
2021/04/24 03:04:01;;;;;;;20.42;12.13;;;12.00;79.70;;;;;;5071396;28;20530;-77
2021/04/24 03:06:28;;;;;;;22.52;11.85;;;12.00;79.80;;;;;;5071989;28;20430;-73
2021/04/24 03:08:54;;;;;;;21.88;12.32;;;12.00;79.80;;;;;;5069733;28;20419;-75
2021/04/24 03:11:20;;;;;;;22.88;12.65;;;12.00;80.10;;;;;;5075605;28;20527;-75
2021/04/24 03:13:47;;;;;;;21.70;12.55;;;12.00;80.00;;;;;;5076885;28;20498;-75
2021/04/24 03:16:13;;;;;;;22.23;11.90;;;11.90;80.10;;;;;;5078476;28;20494;-75
2021/04/24 03:18:40;;;;;;;20.52;12.52;;;11.90;80.20;;;;;;5069726;28;20431;-76
2021/04/24 03:21:06;;;;;;;23.45;12.70;;;11.90;80.30;;;;;;5072390;28;20423;-75
2021/04/24 03:23:34;;;;;;;21.98;12.57;;;11.90;80.40;;;;;;5068003;28;20761;-75
2021/04/24 03:26:00;;;;;;;26.42;13.10;;;11.90;80.50;;;;;;5074226;28;20431;-75
2021/04/24 03:28:26;;;;;;;22.70;12.68;;;11.90;80.60;;;;;;5069985;28;20484;-74
2021/04/24 03:30:53;;;;;;;23.40;12.10;;;11.80;80.80;;;;;;5081288;28;20431;-74
2021/04/24 03:33:19;;;;;;;23.92;12.85;;;11.90;80.70;;;;;;5074102;28;20425;-75
2021/04/24 03:35:46;;;;;;;20.73;12.13;;;11.80;80.90;;;;;;5072496;28;20414;-73
2021/04/24 03:38:12;;;;;;;22.60;12.13;;;11.80;80.90;;;;;;5072615;28;20423;-76
2021/04/24 03:40:40;;;;;;;19.25;12.18;;;11.80;81.10;;;;;;5071617;28;20949;-73
2021/04/24 03:43:06;;;;;;;21.58;12.63;;;11.80;81.10;;;;;;5072662;28;20423;-74
2021/04/24 03:45:33;;;;;;;18.38;11.65;;;11.70;81.10;;;;;;5071069;28;20423;-76
2021/04/24 03:47:59;;;;;;;23.90;12.07;;;11.70;81.10;;;;;;5071811;28;20580;-76
2021/04/24 03:50:27;;;;;;;19.80;12.13;;;11.70;81.00;;;;;;5067504;28;20443;-75
2021/04/24 03:52:55;;;;;;;23.15;11.90;;;11.70;81.10;;;;;;5069350;28;20435;-74
2021/04/24 03:55:23;;;;;;;19.30;11.77;;;11.70;81.30;;;;;;5068676;28;20419;-74
2021/04/24 03:57:53;;;;;;;18.50;11.02;;;11.70;81.40;;;;;;5069810;28;20538;-74
2021/04/24 04:00:22;;;;;;;20.90;11.20;;;11.60;81.50;;;;;;5067222;28;20518;-75
2021/04/24 04:02:50;;;;;;;18.17;10.63;;;11.60;81.60;;;;;;5072925;28;20761;-75
2021/04/24 04:05:18;;;;;;;17.50;11.20;;;11.60;81.70;;;;;;5069192;28;20423;-74
2021/04/24 04:07:46;;;;;;;17.40;10.18;;;11.60;81.80;;;;;;5067746;28;20427;-74
2021/04/24 04:10:15;;;;;;;18.60;10.75;;;11.60;81.80;;;;;;5066394;28;20929;-75
2021/04/24 04:12:41;;;;;;;15.95;10.15;;;11.60;81.80;;;;;;5075983;28;20486;-75
2021/04/24 04:15:11;;;;;;;17.55;10.50;;;11.60;82.00;;;;;;5069544;28;20431;-75
2021/04/24 04:17:38;;;;;;;17.57;10.40;;;11.50;82.00;;;;;;5066833;28;20931;-75
2021/04/24 04:20:06;;;;;;;19.40;10.57;;;11.50;82.10;;;;;;5070140;28;20430;-75
2021/04/24 04:22:33;;;;;;;19.75;10.70;;;11.50;82.00;;;;;;5071991;28;20524;-76
2021/04/24 04:24:59;;;;;;;19.98;10.73;;;11.50;82.10;;;;;;5065880;28;20584;-74
2021/04/24 04:27:26;;;;;;;18.90;9.95;;;11.50;82.30;;;;;;5069379;28;20450;-75
2021/04/24 04:29:52;;;;;;;18.27;10.52;;;11.50;82.20;;;;;;5070440;28;22169;-74
2021/04/24 04:32:20;;;;;;;21.00;10.80;;;11.50;82.30;;;;;;5076191;28;20890;-75
2021/04/24 04:34:46;;;;;;;17.17;9.85;;;11.40;82.20;;;;;;5073717;28;21064;-75
2021/04/24 04:37:13;;;;;;;16.63;11.10;;;11.40;82.30;;;;;;5072391;28;20975;-74
2021/04/24 04:39:40;;;;;;;20.35;11.38;;;11.40;83.20;;;;;;5063965;28;20911;-77
2021/04/24 04:42:07;;;;;;;17.40;10.02;;;11.40;82.60;;;;;;5070358;28;20423;-74
2021/04/24 04:44:33;;;;;;;17.80;10.07;;;11.40;82.70;;;;;;5067182;28;20417;-75
2021/04/24 04:47:00;;;;;;;17.60;9.73;;;11.40;83.00;;;;;;5067504;28;20421;-75
2021/04/24 04:49:27;;;;;;;18.38;10.23;;;11.40;83.10;;;;;;5070728;28;20423;-75
2021/04/24 04:51:53;;;;;;;17.83;10.13;;;11.40;83.40;;;;;;5077840;28;20426;-74
2021/04/24 04:54:20;;;;;;;16.85;10.00;;;11.40;83.20;;;;;;5070567;28;20944;-76
2021/04/24 04:56:46;;;;;;;21.55;10.70;;;11.40;83.30;;;;;;5074814;28;20427;-74
2021/04/24 04:59:13;;;;;;;17.58;9.90;;;11.40;83.70;;;;;;5069722;28;21540;-75
2021/04/24 05:01:39;;;;;;;19.43;9.90;;;11.40;83.90;;;;;;5071154;28;20900;-75
2021/04/24 05:04:06;;;;;;;18.77;9.70;;;11.40;83.70;;;;;;5069723;28;20907;-76
2021/04/24 05:06:33;;;;;;;18.02;9.70;;;11.40;83.80;;;;;;5069243;28;20427;-75
2021/04/24 05:09:00;;;;;;;17.87;9.70;;;11.50;83.60;;;;;;5074880;28;20476;-75
2021/04/24 05:11:26;;;;;;;16.13;9.70;;;11.40;83.70;;;;;;5082988;28;20790;-75
2021/04/24 05:13:52;;;;;;;17.25;10.00;;;11.50;83.70;;;;;;5073393;28;20494;-76
2021/04/24 05:16:19;;;;;;;17.27;9.80;;;11.40;83.70;;;;;;5070883;28;20415;-76
2021/04/24 05:18:45;;;;;;;17.45;9.55;;;11.50;83.90;;;;;;5068860;28;20460;-76
2021/04/24 05:21:12;;;;;;;17.13;9.32;;;11.50;83.70;;;;;;5069801;28;20476;-74
2021/04/24 05:23:39;;;;;;;16.10;9.60;;;11.50;83.60;;;;;;5073868;28;20416;-76
2021/04/24 05:26:05;;;;;;;15.37;9.23;;;11.60;83.60;;;;;;5072206;28;20765;-73
2021/04/24 05:28:32;;;;;;;18.85;9.30;;;11.50;83.60;;;;;;5068243;28;20443;-74
2021/04/24 05:30:59;;;;;;;15.93;9.80;;;11.50;83.50;;;;;;5076671;28;20423;-75
2021/04/24 05:33:25;;;;;;;14.52;9.23;;;11.60;83.60;;;;;;5071176;28;20438;-74
2021/04/24 05:35:53;;;;;;;15.48;9.32;;;11.60;83.60;;;;;;5070121;28;20431;-75
2021/04/24 05:38:19;;;;;;;18.25;9.73;;;11.60;83.50;;;;;;5070841;28;20423;-74
2021/04/24 05:40:46;;;;;;;18.85;9.48;;;11.60;83.50;;;;;;5072463;28;20465;-75
2021/04/24 05:43:13;;;;;;;16.05;9.25;;;11.60;83.40;;;;;;5075537;28;20427;-74
2021/04/24 05:45:39;;;;;;;15.73;8.67;;;11.60;83.30;;;;;;5073600;28;20441;-74
2021/04/24 05:48:06;;;;;;;16.53;9.10;;;11.70;83.20;;;;;;5075673;28;20494;-76
2021/04/24 05:50:33;;;;;;;15.40;9.10;;;11.70;83.10;;;;;;5078504;28;20782;-78
2021/04/24 05:52:59;;;;;;;14.03;8.47;;;11.70;83.00;;;;;;5073761;28;20427;-76
2021/04/24 05:55:25;;;;;;;17.40;9.30;;;11.70;83.00;;;;;;5072699;28;20492;-75
2021/04/24 05:57:52;;;;;;;17.35;9.00;;;11.70;83.10;;;;;;5078281;28;20476;-76
2021/04/24 06:00:21;;;;;;;12.98;8.90;;;11.70;83.10;;;;;;5072006;28;20433;-76
2021/04/24 06:02:47;;;;;;;18.65;8.68;;;11.80;83.00;;;;;;5074139;28;20427;-75
2021/04/24 06:05:14;;;;;;;16.23;8.85;;;11.80;82.80;;;;;;5073044;28;20434;-75
2021/04/24 06:07:41;;;;;;;14.25;8.55;;;11.80;82.70;;;;;;5072394;28;20753;-75
2021/04/24 06:10:11;;;;;;;16.98;8.93;;;11.80;82.50;;;;;;5076897;28;20425;-77
2021/04/24 06:12:39;;;;;;;14.90;9.07;;;11.80;82.60;;;;;;5075387;28;20427;-74
2021/04/24 06:15:08;;;;;;;14.87;8.70;;;11.80;82.60;;;;;;5074860;28;20489;-78
2021/04/24 06:17:35;;;;;;;16.27;8.85;;;11.80;82.80;;;;;;5070892;28;20525;-75
2021/04/24 06:20:04;;;;;;;15.75;8.20;;;11.80;82.80;;;;;;5070053;28;20471;-76
2021/04/24 06:22:31;;;;;;;14.27;7.95;;;11.90;82.70;;;;;;5078186;28;20564;-75
2021/04/24 06:24:58;;;;;;;13.97;8.20;;;11.90;82.70;;;;;;5069329;28;20809;-74
2021/04/24 06:27:24;;;;;;;13.70;7.70;;;12.00;82.10;;;;;;5070676;28;20426;-75
2021/04/24 06:29:51;;;;;;;13.85;8.00;;;12.00;82.00;;;;;;5077595;28;20452;-76
2021/04/24 06:32:19;;;;;;;15.23;7.80;;;12.00;81.70;;;;;;5074872;28;20422;-74
2021/04/24 06:34:45;;;;;;;12.68;7.47;;;12.10;81.40;;;;;;5073115;28;20423;-77
2021/04/24 06:37:11;;;;;;;12.80;7.13;;;12.20;81.50;;;;;;5073820;28;20423;-74
2021/04/24 06:39:38;;;;;;;12.63;7.05;;;12.20;81.40;;;;;;5064162;28;20435;-75
2021/04/24 06:42:04;;;;;;;13.52;7.97;;;12.20;81.30;;;;;;5078694;28;20423;-75
2021/04/24 06:44:32;;;;;;;13.23;7.68;;;12.30;81.20;;;;;;5071080;28;20426;-77
2021/04/24 06:46:58;;;;;;;14.57;7.65;;;12.30;81.10;;;;;;5082376;28;20837;-75
2021/04/24 06:49:26;;;;;;;15.20;7.78;;;12.40;81.00;;;;;;5074480;28;20416;-76
2021/04/24 06:51:52;;;;;;;10.57;7.40;;;12.40;80.80;;;;;;5069116;28;20426;-75
2021/04/24 06:54:18;;;;;;;13.15;7.57;;;12.40;80.60;;;;;;5070220;28;20423;-75
2021/04/24 06:56:45;;;;;;;13.85;8.15;;;12.40;80.70;;;;;;5072447;28;20431;-75
2021/04/24 06:59:11;;;;;;;15.70;8.05;;;12.50;80.90;;;;;;5071161;28;20422;-75
2021/04/24 07:01:38;;;;;;;12.75;7.65;;;12.50;80.90;;;;;;5069791;28;20422;-76
2021/04/24 07:04:05;;;;;;;14.55;7.90;;;12.50;80.70;;;;;;5081264;28;20428;-75
2021/04/24 07:06:32;;;;;;;14.52;7.88;;;12.60;80.90;;;;;;5076303;28;20886;-75
2021/04/24 07:08:59;;;;;;;12.77;7.43;;;12.60;80.30;;;;;;5069595;28;20438;-76
2021/04/24 07:11:26;;;;;;;11.20;7.45;;;12.60;79.70;;;;;;5075136;28;20426;-76
2021/04/24 07:13:53;;;;;;;11.70;7.10;;;12.60;79.60;;;;;;5070083;28;20428;-75
2021/04/24 07:16:19;;;;;;;11.55;7.30;;;12.60;79.00;;;;;;5073516;28;20432;-76
2021/04/24 07:18:46;;;;;;;13.88;6.93;;;12.60;78.40;;;;;;5060988;28;20557;-74
2021/04/24 07:21:12;;;;;;;11.33;6.63;;;12.60;77.00;;;;;;5070558;28;20488;-74
2021/04/24 07:23:40;;;;;;;10.57;6.10;;;12.60;75.60;;;;;;5070697;28;20438;-75
2021/04/24 07:26:08;;;;;;;14.55;6.43;;;12.60;75.90;;;;;;5066861;28;20443;-75
2021/04/24 07:28:34;;;;;;;10.63;5.68;;;12.60;75.40;;;;;;5065748;28;20436;-75
2021/04/24 07:31:01;;;;;;;10.10;5.78;;;12.60;74.80;;;;;;5065901;28;20427;-74
2021/04/24 07:33:27;;;;;;;12.05;5.45;;;12.70;74.10;;;;;;5064508;28;21091;-74
2021/04/24 07:35:54;;;;;;;12.48;5.68;;;12.70;73.70;;;;;;5068157;28;20435;-76
2021/04/24 07:38:21;;;;;;;9.45;5.50;;;12.80;73.30;;;;;;5068939;28;20431;-74
2021/04/24 07:40:49;;;;;;;9.40;5.28;;;12.80;73.50;;;;;;5068262;28;20427;-76
2021/04/24 07:43:16;;;;;;;10.30;5.45;;;12.80;73.50;;;;;;5062024;28;20419;-75
2021/04/24 07:45:47;;;;;;;12.57;5.63;;;12.90;73.50;;;;;;5072559;28;20428;-74
2021/04/24 07:48:16;;;;;;;8.43;5.60;;;13.00;73.50;;;;;;5068281;28;20439;-75
2021/04/24 07:50:42;;;;;;;10.53;5.57;;;13.00;73.80;;;;;;5070290;28;20419;-76
2021/04/24 07:53:09;;;;;;;10.23;5.50;;;13.00;73.20;;;;;;5067829;28;20868;-75
2021/04/24 07:55:35;;;;;;;11.82;5.50;;;13.00;73.10;;;;;;5068432;28;20427;-74
2021/04/24 07:58:02;;;;;;;10.00;5.40;;;13.00;72.90;;;;;;5067385;28;20559;-75
2021/04/24 08:00:30;;;;;;;10.85;6.07;;;13.00;72.60;;;;;;5070033;28;20495;-75
2021/04/24 08:02:58;;;;;;;9.73;5.53;;;13.10;72.90;;;;;;5067285;28;20469;-75
2021/04/24 08:05:24;;;;;;;11.30;5.78;;;13.20;72.20;;;;;;5066117;28;20934;-74
2021/04/24 08:07:50;;;;;;;12.93;6.22;;;13.20;71.90;;;;;;5069667;28;20415;-75
2021/04/24 08:10:17;;;;;;;8.82;5.57;;;13.20;71.20;;;;;;5065979;28;20427;-75
2021/04/24 08:12:46;;;;;;;10.20;5.90;;;13.30;71.60;;;;;;5070003;28;20434;-74
2021/04/24 08:15:14;;;;;;;11.15;5.85;;;13.40;72.30;;;;;;5073355;28;20451;-75
2021/04/24 08:17:41;;;;;;;10.82;6.13;;;13.40;71.90;;;;;;5068394;28;20431;-76
2021/04/24 08:20:08;;;;;;;11.80;6.07;;;13.40;71.30;;;;;;5069759;28;20431;-75
2021/04/24 08:22:35;;;;;;;10.60;6.50;;;13.40;70.80;;;;;;5074033;28;20434;-75
2021/04/24 08:25:01;;;;;;;11.68;6.07;;;13.50;70.50;;;;;;5067379;28;20434;-76
2021/04/24 08:27:28;;;;;;;9.98;6.25;;;13.50;69.70;;;;;;5071335;28;20430;-75
2021/04/24 08:29:54;;;;;;;15.00;7.32;;;13.60;70.00;;;;;;5075689;28;20426;-74
2021/04/24 08:32:21;;;;;;;12.55;6.78;;;13.70;70.20;;;;;;5069786;28;20423;-76
2021/04/24 08:34:48;;;;;;;12.77;8.27;;;13.70;70.20;;;;;;5072147;28;20828;-75
2021/04/24 08:37:14;;;;;;;14.93;7.95;;;13.80;71.00;;;;;;5073878;28;20498;-74
2021/04/24 08:39:41;;;;;;;10.95;7.88;;;13.90;71.30;;;;;;5068787;28;20419;-75
2021/04/24 08:42:08;;;;;;;13.57;8.03;;;14.00;70.90;;;;;;5072165;28;20423;-74
2021/04/24 08:44:34;;;;;;;11.98;7.50;;;14.20;70.40;;;;;;5077380;28;20772;-74
2021/04/24 08:47:01;;;;;;;11.83;7.43;;;14.20;68.80;;;;;;5073938;28;20427;-73
2021/04/24 08:49:28;;;;;;;12.77;7.30;;;14.30;67.70;;;;;;5064074;28;20417;-73
2021/04/24 08:51:55;;;;;;;11.52;7.13;;;14.40;68.10;;;;;;5066651;28;20784;-73
2021/04/24 08:54:23;;;;;;;11.68;6.28;;;14.40;67.10;;;;;;5068928;28;20422;-73
2021/04/24 08:56:49;;;;;;;10.23;6.22;;;14.50;65.80;;;;;;5077135;28;20427;-73
2021/04/24 08:59:16;;;;;;;11.63;6.47;;;14.50;64.70;;;;;;5068657;28;20429;-74
2021/04/24 09:01:43;;;;;;;10.20;5.80;;;14.60;65.60;;;;;;5067319;28;20427;-75
2021/04/24 09:04:09;;;;;;;7.53;5.53;;;14.60;62.20;;;;;;5069446;28;20435;-74
2021/04/24 09:06:36;;;;;;;11.13;5.72;;;14.60;61.40;;;;;;5075927;28;20434;-74
2021/04/24 09:09:05;;;;;;;10.10;5.70;;;14.60;61.00;;;;;;5067245;28;20419;-75
2021/04/24 09:11:39;;;;;;;10.45;6.05;;;14.60;61.60;;;;;;5072409;28;20809;-75
2021/04/24 09:14:08;;;;;;;9.20;5.50;;;14.70;62.20;;;;;;5076201;28;20422;-75
2021/04/24 09:16:36;;;;;;;8.23;5.53;;;14.80;61.10;;;;;;5073365;28;20423;-75
2021/04/24 09:19:23;;;;;;;10.07;6.07;;;14.90;60.80;;;;;;5070075;28;20426;-75
2021/04/24 09:22:11;;;;;;;9.98;5.93;;;15.00;61.00;;;;;;5067323;28;20931;-75
2021/04/24 09:24:38;;;;;;;10.85;6.10;;;15.20;59.80;;;;;;5071506;28;20421;-75
2021/04/24 09:27:05;;;;;;;9.27;5.90;;;15.30;59.30;;;;;;5079888;28;20423;-75
2021/04/24 09:29:31;;;;;;;10.10;6.07;;;15.40;59.50;;;;;;5067649;28;20808;-78
2021/04/24 09:32:13;;;;;;;9.10;5.50;;;15.50;60.10;;;;;;5075680;28;20540;-75
2021/04/24 09:34:39;;;;;;;8.35;4.82;;;15.60;57.90;;;;;;5069721;28;20418;-76
2021/04/24 09:37:14;;;;;;;7.85;5.10;;;15.70;55.50;;;;;;5069848;28;20434;-75
2021/04/24 09:39:45;;;;;;;9.50;5.72;;;15.80;55.60;;;;;;5072452;28;20434;-75
2021/04/24 09:42:33;;;;;;;9.27;5.82;;;15.90;56.30;;;;;;5068235;28;20419;-75
2021/04/24 09:44:59;;;;;;;11.10;6.20;;;15.90;57.40;;;;;;5075237;28;20433;-72
2021/04/24 09:47:40;;;;;;;11.40;6.37;;;16.00;57.20;;;;;;5073044;28;20450;-74
2021/04/24 09:50:12;;;;;;;11.75;7.07;;;16.00;57.40;;;;;;5068173;28;20427;-75
2021/04/24 09:52:39;;;;;;;11.82;6.70;;;16.00;56.40;;;;;;5072807;28;20430;-73
2021/04/24 09:55:07;;;;;;;11.07;6.72;;;16.10;55.80;;;;;;5072410;28;20417;-75
2021/04/24 09:57:34;;;;;;;9.32;6.43;;;16.10;55.50;;;;;;5076552;28;20421;-74
2021/04/24 10:00:03;;;;;;;10.55;6.22;;;16.00;55.00;;;;;;5071811;28;20436;-75
2021/04/24 10:02:41;;;;;;;8.50;5.38;;;16.00;55.00;;;;;;5077698;28;20488;-75
2021/04/24 10:05:10;;;;;;;8.07;5.70;;;16.00;55.60;;;;;;5073666;28;20435;-76
2021/04/24 10:07:37;;;;;;;8.80;5.20;;;16.10;55.00;;;;;;5066221;28;20426;-73
2021/04/24 10:10:07;;;;;;;6.77;4.63;;;16.10;53.40;;;;;;5069484;28;20783;-75
2021/04/24 10:12:34;;;;;;;7.18;4.40;;;16.20;52.20;;;;;;5072868;28;20427;-74
2021/04/24 10:15:01;;;;;;;6.90;3.97;;;16.30;51.00;;;;;;5074023;28;20426;-76
2021/04/24 10:17:28;;;;;;;6.35;4.10;;;16.40;50.60;;;;;;5071138;28;20428;-76
2021/04/24 10:19:54;;;;;;;7.03;3.87;;;16.40;50.00;;;;;;5073797;28;20438;-75
2021/04/24 10:22:22;;;;;;;9.18;3.90;;;16.50;49.10;;;;;;5080729;28;20423;-72
2021/04/24 10:24:49;;;;;;;7.55;3.95;;;16.50;48.80;;;;;;5078591;28;20428;-73
2021/04/24 10:27:18;;;;;;;7.43;3.80;;;16.60;48.90;;;;;;5076592;28;20510;-76
2021/04/24 10:29:46;;;;;;;6.72;3.45;;;16.70;47.90;;;;;;5077647;28;20485;-75
2021/04/24 10:32:13;;;;;;;7.82;4.43;;;16.70;47.60;;;;;;5076051;28;20498;-75
2021/04/24 10:34:41;;;;;;;7.50;4.60;;;16.80;48.20;;;;;;5077626;28;20903;-78
2021/04/24 10:37:08;;;;;;;7.63;4.20;;;16.90;48.70;;;;;;5074763;28;20925;-76
2021/04/24 10:39:37;;;;;;;8.13;4.60;;;16.90;49.10;;;;;;5066163;28;20422;-77
2021/04/24 10:42:09;;;;;;;10.43;4.80;;;16.90;47.90;;;;;;5071262;28;20426;-74
2021/04/24 10:44:48;;;;;;;10.63;5.30;;;16.90;49.10;;;;;;5068227;28;20434;-76
2021/04/24 10:47:15;;;;;;;9.50;5.38;;;17.00;49.80;;;;;;5076815;28;20434;-74
2021/04/24 10:49:55;;;;;;;8.02;5.07;;;17.00;50.00;;;;;;5072469;28;20433;-74
2021/04/24 10:52:23;;;;;;;7.88;5.20;;;17.10;50.60;;;;;;5069964;28;20428;-75
2021/04/24 10:55:27;;;;;;;9.30;5.00;;;17.10;50.90;;;;;;5065990;28;20432;-75
2021/04/24 10:57:56;;;;;;;8.32;4.43;;;17.10;51.00;;;;;;5069673;28;20425;-75
2021/04/24 11:00:47;;;;;;;7.80;4.55;;;17.10;50.70;;;;;;5071988;28;20779;-74
2021/04/24 11:03:41;;;;;;;7.85;4.43;;;17.20;50.50;;;;;;5075422;28;20437;-75
2021/04/24 11:06:10;;;;;;;7.03;4.10;;;17.30;50.60;;;;;;5073260;28;20526;-74
2021/04/24 11:08:37;;;;;;;8.90;4.67;;;17.30;50.00;;;;;;5073204;28;20537;-76
2021/04/24 11:11:06;;;;;;;8.75;4.50;;;17.40;49.70;;;;;;5069883;28;20435;-76
2021/04/24 11:13:35;;;;;;;9.80;4.47;;;17.40;48.90;;;;;;5070114;28;20447;-75
2021/04/24 11:16:03;;;;;;;6.63;4.40;;;17.30;49.30;;;;;;5072879;28;21847;-75
2021/04/24 11:18:32;;;;;;;8.88;4.40;;;17.40;50.50;;;;;;5070292;28;20435;-75
2021/04/24 11:21:02;;;;;;;7.82;3.58;;;17.30;49.90;;;;;;5072200;28;20479;-77
2021/04/24 11:23:46;;;;;;;7.00;3.50;;;17.30;49.20;;;;;;5066703;28;20447;-76
2021/04/24 11:26:15;;;;;;;6.67;3.17;;;17.30;48.40;;;;;;5070140;28;20432;-75
2021/04/24 11:29:07;;;;;;;7.60;2.80;;;17.40;48.30;;;;;;5070986;28;20423;-74
2021/04/24 11:31:58;;;;;;;6.05;2.80;;;17.40;47.90;;;;;;5071576;28;20427;-75
2021/04/24 11:34:36;;;;;;;7.47;2.58;;;17.40;46.20;;;;;;5071756;28;21002;-76
2021/04/24 11:37:26;;;;;;;8.15;3.20;;;17.50;46.00;;;;;;5072749;28;20432;-75
2021/04/24 11:40:32;;;;;;;5.77;2.70;;;17.40;45.60;;;;;;5068239;28;20427;-75
2021/04/24 11:43:06;;;;;;;7.13;2.95;;;17.40;45.10;;;;;;5065768;28;20427;-74
2021/04/24 11:45:58;;;;;;;7.40;3.05;;;17.50;44.40;;;;;;5072039;28;20522;-75
2021/04/24 11:49:00;;;;;;;7.18;2.95;;;17.50;44.50;;;;;;5070029;28;20438;-75
2021/04/24 11:51:45;;;;;;;6.93;3.45;;;17.50;44.10;;;;;;5071956;28;20431;-75
2021/04/24 11:54:21;;;;;;;9.73;4.00;;;17.60;45.00;;;;;;5076881;28;21097;-75
2021/04/24 11:56:48;;;;;;;6.88;3.80;;;17.60;45.80;;;;;;5072669;28;20892;-79
2021/04/24 11:59:21;;;;;;;8.68;4.22;;;17.60;45.60;;;;;;5068738;28;20518;-74
2021/04/24 12:01:48;;;;;;;7.07;3.57;;;17.70;45.70;;;;;;5073983;28;20762;-76
2021/04/24 12:04:34;;;;;;;7.35;4.07;;;17.70;44.80;;;;;;5066411;28;20435;-76
2021/04/24 12:07:04;;;;;;;10.65;4.00;;;17.80;46.10;;;;;;5073668;28;20546;-75
2021/04/24 12:09:44;;;;;;;9.60;4.07;;;17.90;45.30;;;;;;5068502;28;20437;-73
2021/04/24 12:12:10;;;;;;;7.95;3.90;;;17.90;45.40;;;;;;5069813;28;20760;-74
2021/04/24 12:14:36;;;;;;;9.07;4.00;;;18.00;45.10;;;;;;5070719;28;20435;-75
2021/04/24 12:17:08;;;;;;;9.95;4.35;;;18.00;45.40;;;;;;5066708;28;20441;-74
2021/04/24 12:19:37;;;;;;;9.65;4.90;;;18.10;46.30;;;;;;5072011;28;20423;-74
2021/04/24 12:22:20;;;;;;;8.50;4.25;;;18.20;46.60;;;;;;5067306;28;20770;-74
2021/04/24 12:24:57;;;;;;;10.05;3.97;;;18.20;46.40;;;;;;5082424;28;20509;-76
2021/04/24 12:27:34;;;;;;;11.20;4.05;;;18.30;45.50;;;;;;5069079;28;20520;-74
2021/04/24 12:30:01;;;;;;;6.88;3.65;;;18.40;45.40;;;;;;5064231;28;21242;-76
2021/04/24 12:32:34;;;;;;;9.43;3.90;;;18.40;45.60;;;;;;5067553;28;20427;-74
2021/04/24 12:35:15;;;;;;;10.75;4.03;;;18.50;46.20;;;;;;5071771;28;20430;-76
2021/04/24 12:37:43;;;;;;;9.07;3.83;;;18.60;46.70;;;;;;5068471;28;20435;-76
2021/04/24 12:40:16;;;;;;;7.68;3.50;;;18.60;46.20;;;;;;5062870;28;20435;-74
2021/04/24 12:42:42;;;;;;;8.15;3.78;;;18.70;46.00;;;;;;5062648;28;20950;-75
2021/04/24 12:45:15;;;;;;;8.25;3.80;;;18.70;45.40;;;;;;5064996;28;20427;-74